createdAt,value
2018-08-04T00:03:32.177Z,10.20
2018-08-04T00:08:36.835Z,11.40
2018-08-04T00:13:41.508Z,11.47
2018-08-04T00:18:46.284Z,11.03
2018-08-04T00:23:50.968Z,11.97
2018-08-04T00:28:55.663Z,11.07
2018-08-04T00:34:00.472Z,11.87
2018-08-04T00:39:08.283Z,11.80
2018-08-04T00:44:13.193Z,11.37
2018-08-04T00:49:17.966Z,12.03
2018-08-04T00:54:22.936Z,12.33
2018-08-04T00:59:27.807Z,12.20
2018-08-04T01:04:32.538Z,12.30
2018-08-04T01:09:37.423Z,12.40
2018-08-04T01:14:42.180Z,11.87
2018-08-04T01:19:46.770Z,12.20
2018-08-04T01:24:51.444Z,11.97
2018-08-04T01:29:56.168Z,12.00
2018-08-04T01:35:00.844Z,13.07
2018-08-04T01:40:06.835Z,15.43
2018-08-04T01:45:11.581Z,13.77
2018-08-04T01:50:16.344Z,13.30
2018-08-04T01:55:21.014Z,13.83
2018-08-04T02:00:25.692Z,13.20
2018-08-04T02:05:30.110Z,13.73
2018-08-04T02:10:34.995Z,13.07
2018-08-04T02:15:39.512Z,13.40
2018-08-04T02:20:44.285Z,13.53
2018-08-04T02:25:49.083Z,13.17
2018-08-04T02:30:53.739Z,13.17
2018-08-04T02:35:58.452Z,14.10
2018-08-04T02:41:03.447Z,13.60
2018-08-04T02:46:08.105Z,15.37
2018-08-04T02:51:12.794Z,14.30
2018-08-04T02:56:17.580Z,14.70
2018-08-04T03:01:22.190Z,15.27
2018-08-04T03:06:26.863Z,13.63
2018-08-04T03:11:31.655Z,14.77
2018-08-04T03:16:36.316Z,15.40
2018-08-04T03:21:40.993Z,15.57
2018-08-04T03:26:45.811Z,14.23
2018-08-04T03:31:50.457Z,15.00
2018-08-04T03:36:55.266Z,15.37
2018-08-04T03:41:59.954Z,15.27
2018-08-04T03:47:04.639Z,15.43
2018-08-04T03:52:09.373Z,15.93
2018-08-04T03:57:14.074Z,14.27
2018-08-04T04:02:19.091Z,17.50
2018-08-04T04:07:23.933Z,15.70
2018-08-04T04:12:28.614Z,14.83
2018-08-04T04:17:44.315Z,16.13
2018-08-04T04:22:49.640Z,16.47
2018-08-04T04:27:54.462Z,14.87
2018-08-04T04:32:59.219Z,14.80
2018-08-04T04:38:03.936Z,13.93
2018-08-04T04:43:08.717Z,14.00
2018-08-04T04:48:13.469Z,13.60
2018-08-04T04:53:18.131Z,14.33
2018-08-04T04:58:22.830Z,14.20
2018-08-04T05:03:27.476Z,14.23
2018-08-04T05:08:32.285Z,13.20
2018-08-04T05:13:36.991Z,13.80
2018-08-04T05:18:41.786Z,12.47
2018-08-04T05:23:46.479Z,12.27
2018-08-04T05:28:51.108Z,12.53
2018-08-04T05:33:55.717Z,13.03
2018-08-04T05:39:00.380Z,13.20
2018-08-04T05:44:05.331Z,13.30
2018-08-04T05:49:10.125Z,13.03
2018-08-04T05:54:14.960Z,12.50
2018-08-04T05:59:19.946Z,12.60
2018-08-04T06:04:24.700Z,13.17
2018-08-04T06:09:29.381Z,12.90
2018-08-04T06:14:34.115Z,12.87
2018-08-04T06:19:38.778Z,12.90
2018-08-04T06:24:43.626Z,12.53
2018-08-04T06:29:48.279Z,12.37
2018-08-04T06:34:53.071Z,12.37
2018-08-04T06:39:57.890Z,12.60
2018-08-04T06:45:02.695Z,13.47
2018-08-04T06:50:08.202Z,13.37
2018-08-04T06:55:12.846Z,12.93
2018-08-04T07:00:17.523Z,12.90
2018-08-04T07:05:22.262Z,13.50
2018-08-04T07:10:27.040Z,13.37
2018-08-04T07:15:31.737Z,13.57
2018-08-04T07:20:36.508Z,12.93
2018-08-04T07:25:41.120Z,13.00
2018-08-04T07:30:45.801Z,12.40
2018-08-04T07:35:50.474Z,13.00
2018-08-04T07:40:55.317Z,12.70
2018-08-04T07:46:00.044Z,11.97
2018-08-04T07:51:04.745Z,10.90
2018-08-04T07:56:09.412Z,10.90
2018-08-04T08:01:14.205Z,11.17
2018-08-04T08:06:18.956Z,10.40
2018-08-04T08:11:23.448Z,11.00
2018-08-04T08:16:28.130Z,10.30
2018-08-04T08:21:32.893Z,10.30
2018-08-04T08:26:37.602Z,10.43
2018-08-04T08:31:42.324Z,10.63
2018-08-04T08:36:47.030Z,9.97
2018-08-04T08:41:51.870Z,9.93
2018-08-04T08:46:56.568Z,10.47
2018-08-04T08:52:01.267Z,10.03
2018-08-04T08:57:06.033Z,10.60
2018-08-04T09:02:10.865Z,9.30
2018-08-04T09:07:15.616Z,9.30
2018-08-04T09:12:20.411Z,9.77
2018-08-04T09:17:25.174Z,9.57
2018-08-04T09:22:29.975Z,9.80
2018-08-04T09:27:34.831Z,9.37
2018-08-04T09:32:39.798Z,8.65
2018-08-04T09:37:45.004Z,8.35
2018-08-04T09:42:49.659Z,8.90
2018-08-04T09:47:54.346Z,8.10
2018-08-04T09:52:59.175Z,7.50
2018-08-04T09:58:03.688Z,5.33
2018-08-04T10:03:08.474Z,5.28
2018-08-04T10:08:13.089Z,5.03
2018-08-04T10:13:17.767Z,6.58
2018-08-04T10:18:22.413Z,5.08
2018-08-04T10:23:27.119Z,5.92
2018-08-04T10:28:31.844Z,6.25
2018-08-04T10:33:36.945Z,5.40
2018-08-04T10:38:41.714Z,5.15
2018-08-04T10:43:46.348Z,5.15
2018-08-04T10:48:51.113Z,5.33
2018-08-04T10:53:55.845Z,5.17
2018-08-04T10:59:00.529Z,5.58
2018-08-04T11:04:05.260Z,5.12
2018-08-04T11:09:11.523Z,6.00
2018-08-04T11:14:16.245Z,5.40
2018-08-04T11:19:20.632Z,5.60
2018-08-04T11:24:25.437Z,5.25
2018-08-04T11:29:30.170Z,5.65
2018-08-04T11:34:34.872Z,6.12
2018-08-04T11:39:39.508Z,5.53
2018-08-04T11:44:44.239Z,5.80
2018-08-04T11:49:49.013Z,5.90
2018-08-04T11:54:53.689Z,5.62
2018-08-04T11:59:58.039Z,5.92
2018-08-04T12:05:02.714Z,5.37
2018-08-04T12:10:08.821Z,5.37
2018-08-04T12:15:13.428Z,5.03
2018-08-04T12:20:18.095Z,5.17
2018-08-04T12:25:22.809Z,5.20
2018-08-04T12:30:27.514Z,5.08
2018-08-04T12:35:32.169Z,5.40
2018-08-04T12:40:37.001Z,5.40
2018-08-04T12:45:41.720Z,6.25
2018-08-04T12:50:46.464Z,5.92
2018-08-04T12:55:51.509Z,5.92
2018-08-04T13:00:56.365Z,6.30
2018-08-04T13:06:01.138Z,5.58
2018-08-04T13:11:06.008Z,5.65
2018-08-04T13:16:10.728Z,5.30
2018-08-04T13:21:15.395Z,6.00
2018-08-04T13:26:20.066Z,6.10
2018-08-04T13:31:24.709Z,5.87
2018-08-04T13:36:29.455Z,5.95
2018-08-04T13:41:34.145Z,5.80
2018-08-04T13:46:39.604Z,5.65
2018-08-04T13:51:44.317Z,6.10
2018-08-04T13:56:49.533Z,5.92
2018-08-04T14:01:54.375Z,5.40
2018-08-04T14:06:59.144Z,5.50
2018-08-04T14:12:03.909Z,5.92
2018-08-04T14:17:08.541Z,5.60
2018-08-04T14:22:13.433Z,5.40
2018-08-04T14:27:18.192Z,5.65
2018-08-04T14:32:23.213Z,5.72
2018-08-04T14:37:28.003Z,5.00
2018-08-04T14:42:34.314Z,5.08
2018-08-04T14:47:40.190Z,5.55
2018-08-04T14:52:45.394Z,5.45
2018-08-04T14:57:50.153Z,4.65
2018-08-04T15:02:59.026Z,5.22
2018-08-04T15:08:04.275Z,5.72
2018-08-04T15:13:12.763Z,5.45
2018-08-04T15:18:17.453Z,5.90
2018-08-04T15:23:27.852Z,5.83
2018-08-04T15:28:32.596Z,5.72
2018-08-04T15:33:37.386Z,5.60
2018-08-04T15:38:42.112Z,5.28
2018-08-04T15:43:46.737Z,5.22
2018-08-04T15:48:51.468Z,5.62
2018-08-04T15:53:56.192Z,6.25
2018-08-04T15:59:07.049Z,5.20
2018-08-04T16:04:12.098Z,5.17
2018-08-04T16:09:17.008Z,5.42
2018-08-04T16:14:21.695Z,5.72
2018-08-04T16:19:26.306Z,5.97
2018-08-04T16:24:31.102Z,5.37
2018-08-04T16:29:35.839Z,5.90
2018-08-04T16:34:40.640Z,5.97
2018-08-04T16:39:45.305Z,5.87
2018-08-04T16:44:49.984Z,6.10
2018-08-04T16:49:54.650Z,6.12
2018-08-04T16:54:59.419Z,6.05
2018-08-04T17:00:04.210Z,5.60
2018-08-04T17:05:08.932Z,5.92
2018-08-04T17:10:13.642Z,6.42
2018-08-04T17:15:18.465Z,6.30
2018-08-04T17:20:23.268Z,5.42
2018-08-04T17:25:27.999Z,6.17
2018-08-04T17:30:32.756Z,6.13
2018-08-04T17:35:37.470Z,6.53
2018-08-04T17:40:42.114Z,6.10
2018-08-04T17:45:46.766Z,6.10
2018-08-04T17:50:51.539Z,6.23
2018-08-04T17:55:56.170Z,6.17
2018-08-04T18:01:00.823Z,6.57
2018-08-04T18:06:05.572Z,6.00
2018-08-04T18:11:10.250Z,6.07
2018-08-04T18:16:14.921Z,6.07
2018-08-04T18:21:19.637Z,6.57
2018-08-04T18:26:24.521Z,6.27
2018-08-04T18:31:29.303Z,6.57
2018-08-04T18:36:34.273Z,6.33
2018-08-04T18:41:39.083Z,6.40
2018-08-04T18:46:43.872Z,6.40
2018-08-04T18:51:48.556Z,7.00
2018-08-04T18:56:53.270Z,6.63
2018-08-04T19:01:57.925Z,7.70
2018-08-04T19:07:02.579Z,6.87
2018-08-04T19:12:07.336Z,6.97
2018-08-04T19:17:12.138Z,7.00
2018-08-04T19:22:17.181Z,6.87
2018-08-04T19:27:21.941Z,7.37
2018-08-04T19:32:26.607Z,6.83
2018-08-04T19:37:31.323Z,7.03
2018-08-04T19:42:36.028Z,6.83
2018-08-04T19:47:40.713Z,7.47
2018-08-04T19:52:45.547Z,6.93
2018-08-04T19:57:50.383Z,7.17
2018-08-04T20:02:55.052Z,6.93
2018-08-04T20:08:00.108Z,7.60
2018-08-04T20:13:04.824Z,7.37
2018-08-04T20:18:09.470Z,7.13
2018-08-04T20:23:14.215Z,6.87
2018-08-04T20:28:18.913Z,6.67
2018-08-04T20:33:23.704Z,6.77
2018-08-04T20:38:28.398Z,7.20
2018-08-04T20:43:33.127Z,6.40
2018-08-04T20:48:37.830Z,8.10
2018-08-04T20:53:42.504Z,7.03
2018-08-04T20:58:47.247Z,6.97
2018-08-04T21:03:52.088Z,6.37
2018-08-04T21:08:56.809Z,7.53
2018-08-04T21:14:01.613Z,7.00
2018-08-04T21:19:06.374Z,6.90
2018-08-04T21:24:11.020Z,7.17
2018-08-04T21:29:15.793Z,6.67
2018-08-04T21:34:20.723Z,5.47
2018-08-04T21:39:25.481Z,5.07
2018-08-04T21:44:30.398Z,5.67
2018-08-04T21:49:35.182Z,5.33
2018-08-04T21:54:39.778Z,4.60
2018-08-04T21:59:44.412Z,4.87
2018-08-04T22:04:49.110Z,4.57
2018-08-04T22:09:53.797Z,4.53
2018-08-04T22:14:58.520Z,3.10
2018-08-04T22:20:03.176Z,3.20
2018-08-04T22:25:10.130Z,4.37
2018-08-04T22:30:16.136Z,3.23
2018-08-04T22:35:21.309Z,4.53
2018-08-04T22:40:26.081Z,2.53
2018-08-04T22:46:14.743Z,2.80
2018-08-04T22:51:20.907Z,2.40
2018-08-04T22:56:25.781Z,2.70
2018-08-04T23:01:31.256Z,3.60
2018-08-04T23:06:35.939Z,3.00
2018-08-04T23:11:40.564Z,2.83
2018-08-04T23:16:45.309Z,2.60
2018-08-04T23:21:50.106Z,3.37
2018-08-04T23:26:54.885Z,3.17
2018-08-04T23:31:59.706Z,3.97
2018-08-04T23:37:06.382Z,4.00
2018-08-04T23:42:12.663Z,3.20
2018-08-04T23:47:17.340Z,2.20
2018-08-04T23:52:22.013Z,2.30
2018-08-04T23:57:26.831Z,2.40
